sensor_id;sensor_type;location;lat;lon;timestamp;P1;durP1;ratioP1;P2;durP2;ratioP2
6614;SDS011;3343;42.896;23.912;2022-09-06T00:00:02;2.00;;;1.80;;
6614;SDS011;3343;42.896;23.912;2022-09-06T00:02:31;4.33;;;2.30;;
6614;SDS011;3343;42.896;23.912;2022-09-06T00:04:59;2.33;;;1.83;;
6614;SDS011;3343;42.896;23.912;2022-09-06T00:07:26;3.00;;;2.23;;
6614;SDS011;3343;42.896;23.912;2022-09-06T00:09:53;2.27;;;2.07;;
6614;SDS011;3343;42.896;23.912;2022-09-06T00:12:21;2.00;;;1.70;;
6614;SDS011;3343;42.896;23.912;2022-09-06T00:14:48;2.27;;;1.93;;
6614;SDS011;3343;42.896;23.912;2022-09-06T00:17:16;2.17;;;1.97;;
6614;SDS011;3343;42.896;23.912;2022-09-06T00:19:43;2.87;;;2.10;;
6614;SDS011;3343;42.896;23.912;2022-09-06T00:22:12;2.70;;;1.90;;
6614;SDS011;3343;42.896;23.912;2022-09-06T00:24:39;2.77;;;1.70;;
6614;SDS011;3343;42.896;23.912;2022-09-06T00:27:07;2.10;;;1.90;;
6614;SDS011;3343;42.896;23.912;2022-09-06T00:29:34;2.10;;;1.77;;
6614;SDS011;3343;42.896;23.912;2022-09-06T00:32:01;2.70;;;2.20;;
6614;SDS011;3343;42.896;23.912;2022-09-06T00:34:28;2.10;;;1.90;;
6614;SDS011;3343;42.896;23.912;2022-09-06T00:36:55;1.90;;;1.67;;
6614;SDS011;3343;42.896;23.912;2022-09-06T00:39:23;2.87;;;2.17;;
6614;SDS011;3343;42.896;23.912;2022-09-06T00:41:50;2.20;;;2.00;;
6614;SDS011;3343;42.896;23.912;2022-09-06T00:44:17;2.37;;;2.00;;
6614;SDS011;3343;42.896;23.912;2022-09-06T00:46:45;3.60;;;1.90;;
6614;SDS011;3343;42.896;23.912;2022-09-06T00:49:15;3.00;;;2.23;;
6614;SDS011;3343;42.896;23.912;2022-09-06T00:51:49;2.43;;;2.10;;
6614;SDS011;3343;42.896;23.912;2022-09-06T00:54:17;2.33;;;1.97;;
6614;SDS011;3343;42.896;23.912;2022-09-06T00:56:45;3.03;;;2.20;;
6614;SDS011;3343;42.896;23.912;2022-09-06T00:59:13;2.50;;;2.00;;
6614;SDS011;3343;42.896;23.912;2022-09-06T01:01:40;2.30;;;1.73;;
6614;SDS011;3343;42.896;23.912;2022-09-06T01:04:07;3.63;;;2.27;;
6614;SDS011;3343;42.896;23.912;2022-09-06T01:06:38;2.80;;;2.23;;
6614;SDS011;3343;42.896;23.912;2022-09-06T01:09:16;2.53;;;1.90;;
6614;SDS011;3343;42.896;23.912;2022-09-06T01:12:12;2.77;;;1.83;;
6614;SDS011;3343;42.896;23.912;2022-09-06T01:14:55;2.60;;;1.80;;
6614;SDS011;3343;42.896;23.912;2022-09-06T01:17:35;2.10;;;1.83;;
6614;SDS011;3343;42.896;23.912;2022-09-06T01:20:17;2.63;;;2.00;;
6614;SDS011;3343;42.896;23.912;2022-09-06T01:23:12;1.90;;;1.60;;
6614;SDS011;3343;42.896;23.912;2022-09-06T01:25:58;3.37;;;2.23;;
6614;SDS011;3343;42.896;23.912;2022-09-06T01:28:33;2.67;;;1.90;;
6614;SDS011;3343;42.896;23.912;2022-09-06T01:31:15;3.20;;;2.33;;
6614;SDS011;3343;42.896;23.912;2022-09-06T01:33:52;2.40;;;2.00;;
6614;SDS011;3343;42.896;23.912;2022-09-06T01:36:24;3.60;;;2.07;;
6614;SDS011;3343;42.896;23.912;2022-09-06T01:38:54;3.10;;;1.97;;
6614;SDS011;3343;42.896;23.912;2022-09-06T01:41:21;2.90;;;1.87;;
6614;SDS011;3343;42.896;23.912;2022-09-06T01:43:49;2.57;;;2.20;;
6614;SDS011;3343;42.896;23.912;2022-09-06T01:46:27;2.43;;;1.83;;
6614;SDS011;3343;42.896;23.912;2022-09-06T01:49:02;2.90;;;2.13;;
6614;SDS011;3343;42.896;23.912;2022-09-06T01:51:45;2.17;;;1.80;;
6614;SDS011;3343;42.896;23.912;2022-09-06T01:54:28;2.10;;;1.90;;
6614;SDS011;3343;42.896;23.912;2022-09-06T01:57:10;3.60;;;2.10;;
6614;SDS011;3343;42.896;23.912;2022-09-06T02:00:00;2.93;;;2.07;;
6614;SDS011;3343;42.896;23.912;2022-09-06T02:02:34;3.63;;;1.77;;
6614;SDS011;3343;42.896;23.912;2022-09-06T02:05:08;1.97;;;1.77;;
6614;SDS011;3343;42.896;23.912;2022-09-06T02:07:38;3.60;;;2.33;;
6614;SDS011;3343;42.896;23.912;2022-09-06T02:10:10;2.67;;;2.17;;
6614;SDS011;3343;42.896;23.912;2022-09-06T02:12:42;2.87;;;1.97;;
6614;SDS011;3343;42.896;23.912;2022-09-06T02:15:14;2.40;;;2.00;;
6614;SDS011;3343;42.896;23.912;2022-09-06T02:17:47;2.73;;;2.10;;
6614;SDS011;3343;42.896;23.912;2022-09-06T02:20:19;3.40;;;2.20;;
6614;SDS011;3343;42.896;23.912;2022-09-06T02:22:50;2.50;;;2.23;;
6614;SDS011;3343;42.896;23.912;2022-09-06T02:25:20;3.03;;;2.30;;
6614;SDS011;3343;42.896;23.912;2022-09-06T02:27:51;3.57;;;2.30;;
6614;SDS011;3343;42.896;23.912;2022-09-06T02:30:20;3.13;;;2.00;;
6614;SDS011;3343;42.896;23.912;2022-09-06T02:32:49;3.30;;;2.40;;
6614;SDS011;3343;42.896;23.912;2022-09-06T02:35:22;3.17;;;2.30;;
6614;SDS011;3343;42.896;23.912;2022-09-06T02:37:49;2.63;;;2.30;;
6614;SDS011;3343;42.896;23.912;2022-09-06T02:40:17;2.67;;;2.10;;
6614;SDS011;3343;42.896;23.912;2022-09-06T02:42:44;2.10;;;1.67;;
6614;SDS011;3343;42.896;23.912;2022-09-06T02:45:11;3.03;;;1.80;;
6614;SDS011;3343;42.896;23.912;2022-09-06T02:47:39;2.27;;;2.03;;
6614;SDS011;3343;42.896;23.912;2022-09-06T02:50:06;3.50;;;2.00;;
6614;SDS011;3343;42.896;23.912;2022-09-06T02:52:33;2.40;;;2.20;;
6614;SDS011;3343;42.896;23.912;2022-09-06T02:55:00;2.23;;;1.73;;
6614;SDS011;3343;42.896;23.912;2022-09-06T02:57:28;3.77;;;1.90;;
6614;SDS011;3343;42.896;23.912;2022-09-06T02:59:55;2.33;;;2.00;;
6614;SDS011;3343;42.896;23.912;2022-09-06T03:02:22;2.83;;;2.33;;
6614;SDS011;3343;42.896;23.912;2022-09-06T03:04:51;3.20;;;2.23;;
6614;SDS011;3343;42.896;23.912;2022-09-06T03:07:18;5.23;;;2.20;;
6614;SDS011;3343;42.896;23.912;2022-09-06T03:09:45;2.40;;;1.90;;
6614;SDS011;3343;42.896;23.912;2022-09-06T03:12:12;2.03;;;1.83;;
6614;SDS011;3343;42.896;23.912;2022-09-06T03:14:38;2.97;;;1.80;;
6614;SDS011;3343;42.896;23.912;2022-09-06T03:17:06;2.03;;;1.83;;
6614;SDS011;3343;42.896;23.912;2022-09-06T03:19:33;2.80;;;2.40;;
6614;SDS011;3343;42.896;23.912;2022-09-06T03:22:01;2.87;;;2.00;;
6614;SDS011;3343;42.896;23.912;2022-09-06T03:24:28;3.73;;;1.90;;
6614;SDS011;3343;42.896;23.912;2022-09-06T03:26:55;3.17;;;2.20;;
6614;SDS011;3343;42.896;23.912;2022-09-06T03:29:22;2.63;;;2.17;;
6614;SDS011;3343;42.896;23.912;2022-09-06T03:31:48;2.50;;;2.07;;
6614;SDS011;3343;42.896;23.912;2022-09-06T03:34:15;2.50;;;2.17;;
6614;SDS011;3343;42.896;23.912;2022-09-06T03:36:42;2.30;;;1.83;;
6614;SDS011;3343;42.896;23.912;2022-09-06T03:39:10;3.33;;;2.40;;
6614;SDS011;3343;42.896;23.912;2022-09-06T03:41:37;2.57;;;2.20;;
6614;SDS011;3343;42.896;23.912;2022-09-06T03:44:04;2.53;;;2.33;;
6614;SDS011;3343;42.896;23.912;2022-09-06T03:46:31;2.57;;;2.00;;
6614;SDS011;3343;42.896;23.912;2022-09-06T03:48:58;2.40;;;1.93;;
6614;SDS011;3343;42.896;23.912;2022-09-06T03:51:26;3.67;;;2.37;;
6614;SDS011;3343;42.896;23.912;2022-09-06T03:53:53;3.10;;;2.27;;
6614;SDS011;3343;42.896;23.912;2022-09-06T03:56:21;3.53;;;2.37;;
6614;SDS011;3343;42.896;23.912;2022-09-06T03:58:48;3.20;;;2.43;;
6614;SDS011;3343;42.896;23.912;2022-09-06T04:01:15;2.30;;;1.97;;
6614;SDS011;3343;42.896;23.912;2022-09-06T04:03:42;2.80;;;2.23;;
6614;SDS011;3343;42.896;23.912;2022-09-06T04:06:09;3.63;;;2.13;;
6614;SDS011;3343;42.896;23.912;2022-09-06T04:08:36;4.07;;;2.00;;
6614;SDS011;3343;42.896;23.912;2022-09-06T04:11:03;2.23;;;2.03;;
6614;SDS011;3343;42.896;23.912;2022-09-06T04:13:32;2.10;;;1.90;;
6614;SDS011;3343;42.896;23.912;2022-09-06T04:16:00;3.10;;;2.33;;
6614;SDS011;3343;42.896;23.912;2022-09-06T04:18:27;3.30;;;2.40;;
6614;SDS011;3343;42.896;23.912;2022-09-06T04:20:54;2.77;;;2.27;;
6614;SDS011;3343;42.896;23.912;2022-09-06T04:23:22;2.63;;;2.13;;
6614;SDS011;3343;42.896;23.912;2022-09-06T04:25:50;3.80;;;2.00;;
6614;SDS011;3343;42.896;23.912;2022-09-06T04:28:19;3.83;;;2.70;;
6614;SDS011;3343;42.896;23.912;2022-09-06T04:30:52;2.90;;;2.23;;
6614;SDS011;3343;42.896;23.912;2022-09-06T04:33:19;4.10;;;2.53;;
6614;SDS011;3343;42.896;23.912;2022-09-06T04:35:49;2.90;;;2.10;;
6614;SDS011;3343;42.896;23.912;2022-09-06T04:38:17;2.73;;;2.30;;
6614;SDS011;3343;42.896;23.912;2022-09-06T04:40:44;4.07;;;2.50;;
6614;SDS011;3343;42.896;23.912;2022-09-06T04:43:11;2.77;;;2.37;;
6614;SDS011;3343;42.896;23.912;2022-09-06T04:45:37;3.77;;;2.47;;
6614;SDS011;3343;42.896;23.912;2022-09-06T04:48:06;2.97;;;2.30;;
6614;SDS011;3343;42.896;23.912;2022-09-06T04:50:33;3.37;;;2.53;;
6614;SDS011;3343;42.896;23.912;2022-09-06T04:53:00;3.37;;;2.17;;
6614;SDS011;3343;42.896;23.912;2022-09-06T04:55:27;2.87;;;2.20;;
6614;SDS011;3343;42.896;23.912;2022-09-06T04:57:55;6.17;;;2.90;;
6614;SDS011;3343;42.896;23.912;2022-09-06T05:00:24;2.37;;;2.00;;
6614;SDS011;3343;42.896;23.912;2022-09-06T05:02:51;2.83;;;2.40;;
6614;SDS011;3343;42.896;23.912;2022-09-06T05:05:19;2.93;;;2.60;;
6614;SDS011;3343;42.896;23.912;2022-09-06T05:07:47;3.03;;;2.50;;
6614;SDS011;3343;42.896;23.912;2022-09-06T05:10:13;4.43;;;2.30;;
6614;SDS011;3343;42.896;23.912;2022-09-06T05:12:40;3.40;;;2.27;;
6614;SDS011;3343;42.896;23.912;2022-09-06T05:15:08;3.70;;;2.80;;
6614;SDS011;3343;42.896;23.912;2022-09-06T05:17:35;3.30;;;2.30;;
6614;SDS011;3343;42.896;23.912;2022-09-06T05:20:02;2.63;;;2.10;;
6614;SDS011;3343;42.896;23.912;2022-09-06T05:22:31;2.37;;;1.90;;
6614;SDS011;3343;42.896;23.912;2022-09-06T05:24:58;3.47;;;2.47;;
6614;SDS011;3343;42.896;23.912;2022-09-06T05:27:24;2.60;;;2.40;;
6614;SDS011;3343;42.896;23.912;2022-09-06T05:29:51;3.50;;;2.40;;
6614;SDS011;3343;42.896;23.912;2022-09-06T05:32:18;2.27;;;1.90;;
6614;SDS011;3343;42.896;23.912;2022-09-06T05:34:45;2.67;;;2.00;;
6614;SDS011;3343;42.896;23.912;2022-09-06T05:37:12;2.43;;;2.00;;
6614;SDS011;3343;42.896;23.912;2022-09-06T05:39:40;2.10;;;1.90;;
6614;SDS011;3343;42.896;23.912;2022-09-06T05:42:07;2.37;;;2.00;;
6614;SDS011;3343;42.896;23.912;2022-09-06T05:44:34;2.30;;;1.93;;
6614;SDS011;3343;42.896;23.912;2022-09-06T05:47:01;4.47;;;2.10;;
6614;SDS011;3343;42.896;23.912;2022-09-06T05:49:29;2.35;;;2.00;;
6614;SDS011;3343;42.896;23.912;2022-09-06T05:51:57;3.95;;;2.00;;
6614;SDS011;3343;42.896;23.912;2022-09-06T05:54:24;2.47;;;2.00;;
6614;SDS011;3343;42.896;23.912;2022-09-06T05:56:52;2.70;;;2.00;;
6614;SDS011;3343;42.896;23.912;2022-09-06T05:59:19;2.15;;;1.85;;
6614;SDS011;3343;42.896;23.912;2022-09-06T06:01:46;3.78;;;2.00;;
6614;SDS011;3343;42.896;23.912;2022-09-06T06:04:14;1.88;;;1.67;;
6614;SDS011;3343;42.896;23.912;2022-09-06T06:06:43;2.50;;;1.90;;
6614;SDS011;3343;42.896;23.912;2022-09-06T06:09:10;1.77;;;1.60;;
6614;SDS011;3343;42.896;23.912;2022-09-06T06:11:38;2.10;;;1.83;;
6614;SDS011;3343;42.896;23.912;2022-09-06T06:14:06;1.90;;;1.52;;
6614;SDS011;3343;42.896;23.912;2022-09-06T06:16:33;2.13;;;1.85;;
6614;SDS011;3343;42.896;23.912;2022-09-06T06:19:01;2.83;;;1.77;;
6614;SDS011;3343;42.896;23.912;2022-09-06T06:21:28;1.65;;;1.52;;
6614;SDS011;3343;42.896;23.912;2022-09-06T06:23:56;2.13;;;1.80;;
6614;SDS011;3343;42.896;23.912;2022-09-06T06:26:24;1.42;;;1.33;;
6614;SDS011;3343;42.896;23.912;2022-09-06T06:28:52;2.40;;;1.77;;
6614;SDS011;3343;42.896;23.912;2022-09-06T06:31:21;1.90;;;1.63;;
6614;SDS011;3343;42.896;23.912;2022-09-06T06:33:48;2.60;;;1.73;;
6614;SDS011;3343;42.896;23.912;2022-09-06T06:36:19;1.88;;;1.60;;
6614;SDS011;3343;42.896;23.912;2022-09-06T06:38:47;2.35;;;2.10;;
6614;SDS011;3343;42.896;23.912;2022-09-06T06:41:16;1.80;;;1.60;;
6614;SDS011;3343;42.896;23.912;2022-09-06T06:43:46;2.28;;;1.75;;
6614;SDS011;3343;42.896;23.912;2022-09-06T06:46:14;2.22;;;1.95;;
6614;SDS011;3343;42.896;23.912;2022-09-06T06:48:43;2.17;;;1.63;;
6614;SDS011;3343;42.896;23.912;2022-09-06T06:51:11;2.67;;;2.15;;
6614;SDS011;3343;42.896;23.912;2022-09-06T06:53:39;2.38;;;1.85;;
6614;SDS011;3343;42.896;23.912;2022-09-06T06:56:13;2.00;;;1.65;;
6614;SDS011;3343;42.896;23.912;2022-09-06T06:58:41;1.75;;;1.60;;
6614;SDS011;3343;42.896;23.912;2022-09-06T07:01:09;1.95;;;1.60;;
6614;SDS011;3343;42.896;23.912;2022-09-06T07:03:36;2.63;;;1.77;;
6614;SDS011;3343;42.896;23.912;2022-09-06T07:06:05;2.25;;;1.70;;
6614;SDS011;3343;42.896;23.912;2022-09-06T07:08:32;1.73;;;1.60;;
6614;SDS011;3343;42.896;23.912;2022-09-06T07:10:59;2.17;;;1.83;;
6614;SDS011;3343;42.896;23.912;2022-09-06T07:13:26;1.95;;;1.50;;
6614;SDS011;3343;42.896;23.912;2022-09-06T07:16:04;2.17;;;1.60;;
6614;SDS011;3343;42.896;23.912;2022-09-06T07:18:32;1.80;;;1.60;;
6614;SDS011;3343;42.896;23.912;2022-09-06T07:20:59;2.25;;;1.90;;
6614;SDS011;3343;42.896;23.912;2022-09-06T07:23:27;1.70;;;1.60;;
6614;SDS011;3343;42.896;23.912;2022-09-06T07:25:54;1.60;;;1.50;;
6614;SDS011;3343;42.896;23.912;2022-09-06T07:28:21;1.67;;;1.58;;
6614;SDS011;3343;42.896;23.912;2022-09-06T07:30:51;2.17;;;1.98;;
6614;SDS011;3343;42.896;23.912;2022-09-06T07:33:19;2.05;;;1.63;;
6614;SDS011;3343;42.896;23.912;2022-09-06T07:35:53;2.78;;;1.75;;
6614;SDS011;3343;42.896;23.912;2022-09-06T07:38:21;2.15;;;1.90;;
6614;SDS011;3343;42.896;23.912;2022-09-06T07:40:52;2.10;;;1.90;;
6614;SDS011;3343;42.896;23.912;2022-09-06T07:43:20;2.63;;;1.80;;
6614;SDS011;3343;42.896;23.912;2022-09-06T07:45:46;2.17;;;1.98;;
6614;SDS011;3343;42.896;23.912;2022-09-06T07:48:14;2.42;;;2.10;;
6614;SDS011;3343;42.896;23.912;2022-09-06T07:50:40;3.20;;;2.50;;
6614;SDS011;3343;42.896;23.912;2022-09-06T07:53:07;3.05;;;2.50;;
6614;SDS011;3343;42.896;23.912;2022-09-06T07:55:35;3.25;;;2.30;;
6614;SDS011;3343;42.896;23.912;2022-09-06T07:58:03;2.88;;;2.22;;
6614;SDS011;3343;42.896;23.912;2022-09-06T08:00:30;2.35;;;2.08;;
6614;SDS011;3343;42.896;23.912;2022-09-06T08:02:58;2.38;;;2.05;;
6614;SDS011;3343;42.896;23.912;2022-09-06T08:05:25;2.03;;;1.90;;
6614;SDS011;3343;42.896;23.912;2022-09-06T08:07:52;2.55;;;2.17;;
6614;SDS011;3343;42.896;23.912;2022-09-06T08:10:18;2.13;;;1.92;;
6614;SDS011;3343;42.896;23.912;2022-09-06T08:12:45;2.67;;;2.00;;
6614;SDS011;3343;42.896;23.912;2022-09-06T08:15:14;1.83;;;1.73;;
6614;SDS011;3343;42.896;23.912;2022-09-06T08:17:41;5.65;;;2.20;;
6614;SDS011;3343;42.896;23.912;2022-09-06T08:20:08;2.60;;;2.25;;
6614;SDS011;3343;42.896;23.912;2022-09-06T08:22:38;3.15;;;2.13;;
6614;SDS011;3343;42.896;23.912;2022-09-06T08:25:05;3.22;;;1.90;;
6614;SDS011;3343;42.896;23.912;2022-09-06T08:27:32;4.60;;;2.08;;
6614;SDS011;3343;42.896;23.912;2022-09-06T08:29:59;1.90;;;1.70;;
6614;SDS011;3343;42.896;23.912;2022-09-06T08:32:27;3.13;;;2.20;;
6614;SDS011;3343;42.896;23.912;2022-09-06T08:34:54;2.00;;;1.80;;
6614;SDS011;3343;42.896;23.912;2022-09-06T08:37:20;2.47;;;2.13;;
6614;SDS011;3343;42.896;23.912;2022-09-06T08:39:47;1.60;;;1.48;;
6614;SDS011;3343;42.896;23.912;2022-09-06T08:42:14;2.20;;;1.77;;
6614;SDS011;3343;42.896;23.912;2022-09-06T08:44:42;1.73;;;1.63;;
6614;SDS011;3343;42.896;23.912;2022-09-06T08:47:12;1.90;;;1.70;;
6614;SDS011;3343;42.896;23.912;2022-09-06T08:49:42;2.17;;;1.70;;
6614;SDS011;3343;42.896;23.912;2022-09-06T08:52:13;2.22;;;2.03;;
6614;SDS011;3343;42.896;23.912;2022-09-06T08:54:50;1.48;;;1.38;;
6614;SDS011;3343;42.896;23.912;2022-09-06T08:57:28;1.90;;;1.80;;
6614;SDS011;3343;42.896;23.912;2022-09-06T09:00:07;1.67;;;1.58;;
6614;SDS011;3343;42.896;23.912;2022-09-06T09:02:40;1.70;;;1.38;;
6614;SDS011;3343;42.896;23.912;2022-09-06T09:05:14;1.60;;;1.50;;
6614;SDS011;3343;42.896;23.912;2022-09-06T09:07:49;2.45;;;1.80;;
6614;SDS011;3343;42.896;23.912;2022-09-06T09:10:26;1.92;;;1.60;;
6614;SDS011;3343;42.896;23.912;2022-09-06T09:12:54;2.10;;;1.73;;
6614;SDS011;3343;42.896;23.912;2022-09-06T09:15:22;1.50;;;1.40;;
6614;SDS011;3343;42.896;23.912;2022-09-06T09:17:50;1.70;;;1.38;;
6614;SDS011;3343;42.896;23.912;2022-09-06T09:20:20;1.60;;;1.50;;
6614;SDS011;3343;42.896;23.912;2022-09-06T09:22:47;2.10;;;1.65;;
6614;SDS011;3343;42.896;23.912;2022-09-06T09:25:16;2.45;;;1.80;;
6614;SDS011;3343;42.896;23.912;2022-09-06T09:27:47;1.70;;;1.60;;
6614;SDS011;3343;42.896;23.912;2022-09-06T09:30:21;1.40;;;1.30;;
6614;SDS011;3343;42.896;23.912;2022-09-06T09:32:49;1.90;;;1.70;;
6614;SDS011;3343;42.896;23.912;2022-09-06T09:35:22;2.20;;;1.58;;
6614;SDS011;3343;42.896;23.912;2022-09-06T09:37:55;2.75;;;1.70;;
6614;SDS011;3343;42.896;23.912;2022-09-06T09:40:32;1.58;;;1.40;;
6614;SDS011;3343;42.896;23.912;2022-09-06T09:43:13;1.85;;;1.40;;
6614;SDS011;3343;42.896;23.912;2022-09-06T09:45:42;1.67;;;1.50;;
6614;SDS011;3343;42.896;23.912;2022-09-06T09:48:17;1.90;;;1.50;;
6614;SDS011;3343;42.896;23.912;2022-09-06T09:50:47;1.50;;;1.40;;
6614;SDS011;3343;42.896;23.912;2022-09-06T09:53:15;1.45;;;1.35;;
6614;SDS011;3343;42.896;23.912;2022-09-06T09:55:43;1.98;;;1.60;;
6614;SDS011;3343;42.896;23.912;2022-09-06T09:58:16;1.60;;;1.50;;
6614;SDS011;3343;42.896;23.912;2022-09-06T10:00:46;1.30;;;1.20;;
6614;SDS011;3343;42.896;23.912;2022-09-06T10:03:13;2.03;;;1.60;;
6614;SDS011;3343;42.896;23.912;2022-09-06T10:05:53;1.48;;;1.38;;
6614;SDS011;3343;42.896;23.912;2022-09-06T10:08:24;3.35;;;1.52;;
6614;SDS011;3343;42.896;23.912;2022-09-06T10:10:52;2.13;;;1.70;;
6614;SDS011;3343;42.896;23.912;2022-09-06T10:13:21;1.40;;;1.30;;
6614;SDS011;3343;42.896;23.912;2022-09-06T10:15:51;1.70;;;1.30;;
6614;SDS011;3343;42.896;23.912;2022-09-06T10:18:27;1.48;;;1.35;;
6614;SDS011;3343;42.896;23.912;2022-09-06T10:20:58;1.92;;;1.60;;
6614;SDS011;3343;42.896;23.912;2022-09-06T10:23:30;1.20;;;1.10;;
6614;SDS011;3343;42.896;23.912;2022-09-06T10:26:04;2.63;;;1.30;;
6614;SDS011;3343;42.896;23.912;2022-09-06T10:28:34;2.08;;;1.60;;
6614;SDS011;3343;42.896;23.912;2022-09-06T10:34:03;1.50;;;1.40;;
6614;SDS011;3343;42.896;23.912;2022-09-06T10:36:51;1.92;;;1.40;;
6614;SDS011;3343;42.896;23.912;2022-09-06T10:39:30;1.58;;;1.40;;
6614;SDS011;3343;42.896;23.912;2022-09-06T10:42:10;1.60;;;1.40;;
6614;SDS011;3343;42.896;23.912;2022-09-06T10:44:50;1.77;;;1.50;;
6614;SDS011;3343;42.896;23.912;2022-09-06T10:47:29;1.52;;;1.40;;
6614;SDS011;3343;42.896;23.912;2022-09-06T10:50:00;1.40;;;1.30;;
6614;SDS011;3343;42.896;23.912;2022-09-06T10:52:32;1.60;;;1.50;;
6614;SDS011;3343;42.896;23.912;2022-09-06T10:55:04;2.22;;;1.30;;
6614;SDS011;3343;42.896;23.912;2022-09-06T10:57:38;2.10;;;1.40;;
6614;SDS011;3343;42.896;23.912;2022-09-06T11:00:10;1.83;;;1.30;;
6614;SDS011;3343;42.896;23.912;2022-09-06T11:02:39;1.98;;;1.42;;
6614;SDS011;3343;42.896;23.912;2022-09-06T11:05:12;1.95;;;1.50;;
6614;SDS011;3343;42.896;23.912;2022-09-06T11:07:44;1.50;;;1.40;;
6614;SDS011;3343;42.896;23.912;2022-09-06T11:10:17;1.60;;;1.50;;
6614;SDS011;3343;42.896;23.912;2022-09-06T11:12:48;2.38;;;1.73;;
6614;SDS011;3343;42.896;23.912;2022-09-06T11:15:21;3.10;;;1.75;;
6614;SDS011;3343;42.896;23.912;2022-09-06T11:17:52;1.35;;;1.25;;
6614;SDS011;3343;42.896;23.912;2022-09-06T11:20:25;2.80;;;1.60;;
6614;SDS011;3343;42.896;23.912;2022-09-06T11:23:03;1.50;;;1.40;;
6614;SDS011;3343;42.896;23.912;2022-09-06T11:28:51;1.42;;;1.33;;
6614;SDS011;3343;42.896;23.912;2022-09-06T11:31:21;1.38;;;1.27;;
6614;SDS011;3343;42.896;23.912;2022-09-06T11:34:00;1.75;;;1.40;;
6614;SDS011;3343;42.896;23.912;2022-09-06T11:36:32;2.67;;;1.60;;
6614;SDS011;3343;42.896;23.912;2022-09-06T11:39:03;2.13;;;1.45;;
6614;SDS011;3343;42.896;23.912;2022-09-06T11:41:33;1.70;;;1.60;;
6614;SDS011;3343;42.896;23.912;2022-09-06T11:44:02;1.77;;;1.65;;
6614;SDS011;3343;42.896;23.912;2022-09-06T11:49:30;2.60;;;1.30;;
6614;SDS011;3343;42.896;23.912;2022-09-06T11:51:59;1.58;;;1.40;;
6614;SDS011;3343;42.896;23.912;2022-09-06T11:54:29;1.55;;;1.30;;
6614;SDS011;3343;42.896;23.912;2022-09-06T11:57:11;1.40;;;1.30;;
6614;SDS011;3343;42.896;23.912;2022-09-06T11:59:42;1.40;;;1.20;;
6614;SDS011;3343;42.896;23.912;2022-09-06T12:02:29;1.50;;;1.40;;
6614;SDS011;3343;42.896;23.912;2022-09-06T12:05:07;2.08;;;1.65;;
6614;SDS011;3343;42.896;23.912;2022-09-06T12:10:57;1.35;;;1.20;;
6614;SDS011;3343;42.896;23.912;2022-09-06T12:13:37;1.50;;;1.40;;
6614;SDS011;3343;42.896;23.912;2022-09-06T12:16:09;1.73;;;1.60;;
6614;SDS011;3343;42.896;23.912;2022-09-06T12:21:37;1.30;;;1.20;;
6614;SDS011;3343;42.896;23.912;2022-09-06T12:27:17;1.52;;;1.30;;
6614;SDS011;3343;42.896;23.912;2022-09-06T12:29:52;1.65;;;1.38;;
6614;SDS011;3343;42.896;23.912;2022-09-06T12:32:24;2.15;;;1.60;;
6614;SDS011;3343;42.896;23.912;2022-09-06T12:34:53;1.52;;;1.42;;
6614;SDS011;3343;42.896;23.912;2022-09-06T12:37:32;1.80;;;1.40;;
6614;SDS011;3343;42.896;23.912;2022-09-06T12:40:02;1.58;;;1.48;;
6614;SDS011;3343;42.896;23.912;2022-09-06T12:42:32;2.05;;;1.70;;
6614;SDS011;3343;42.896;23.912;2022-09-06T12:45:03;1.50;;;1.40;;
6614;SDS011;3343;42.896;23.912;2022-09-06T12:47:33;1.58;;;1.30;;
6614;SDS011;3343;42.896;23.912;2022-09-06T12:50:08;1.80;;;1.63;;
6614;SDS011;3343;42.896;23.912;2022-09-06T12:52:47;1.92;;;1.35;;
6614;SDS011;3343;42.896;23.912;2022-09-06T12:55:18;1.50;;;1.40;;
6614;SDS011;3343;42.896;23.912;2022-09-06T12:57:49;1.67;;;1.50;;
6614;SDS011;3343;42.896;23.912;2022-09-06T13:00:18;1.38;;;1.13;;
6614;SDS011;3343;42.896;23.912;2022-09-06T13:02:50;1.60;;;1.48;;
6614;SDS011;3343;42.896;23.912;2022-09-06T13:05:22;2.10;;;1.42;;
6614;SDS011;3343;42.896;23.912;2022-09-06T13:07:51;1.65;;;1.50;;
6614;SDS011;3343;42.896;23.912;2022-09-06T13:10:21;2.08;;;1.55;;
6614;SDS011;3343;42.896;23.912;2022-09-06T13:12:53;1.50;;;1.40;;
6614;SDS011;3343;42.896;23.912;2022-09-06T13:15:22;1.98;;;1.45;;
6614;SDS011;3343;42.896;23.912;2022-09-06T13:17:50;2.40;;;1.73;;
6614;SDS011;3343;42.896;23.912;2022-09-06T13:20:23;1.83;;;1.52;;
6614;SDS011;3343;42.896;23.912;2022-09-06T13:23:04;1.83;;;1.33;;
6614;SDS011;3343;42.896;23.912;2022-09-06T13:25:33;1.80;;;1.48;;
6614;SDS011;3343;42.896;23.912;2022-09-06T13:28:21;1.90;;;1.52;;
6614;SDS011;3343;42.896;23.912;2022-09-06T13:30:59;2.10;;;1.65;;
6614;SDS011;3343;42.896;23.912;2022-09-06T13:33:28;1.60;;;1.50;;
6614;SDS011;3343;42.896;23.912;2022-09-06T13:36:03;1.60;;;1.50;;
6614;SDS011;3343;42.896;23.912;2022-09-06T13:38:33;1.65;;;1.23;;
6614;SDS011;3343;42.896;23.912;2022-09-06T13:41:05;2.30;;;1.75;;
6614;SDS011;3343;42.896;23.912;2022-09-06T13:43:40;1.48;;;1.30;;
6614;SDS011;3343;42.896;23.912;2022-09-06T13:46:09;1.77;;;1.40;;
6614;SDS011;3343;42.896;23.912;2022-09-06T13:48:37;1.73;;;1.42;;
6614;SDS011;3343;42.896;23.912;2022-09-06T13:51:05;1.83;;;1.65;;
6614;SDS011;3343;42.896;23.912;2022-09-06T13:53:33;2.60;;;1.98;;
6614;SDS011;3343;42.896;23.912;2022-09-06T13:56:01;1.63;;;1.40;;
6614;SDS011;3343;42.896;23.912;2022-09-06T13:58:29;1.80;;;1.70;;
6614;SDS011;3343;42.896;23.912;2022-09-06T14:00:57;2.25;;;1.77;;
6614;SDS011;3343;42.896;23.912;2022-09-06T14:03:25;1.95;;;1.65;;
6614;SDS011;3343;42.896;23.912;2022-09-06T14:05:55;2.78;;;1.90;;
6614;SDS011;3343;42.896;23.912;2022-09-06T14:08:22;1.88;;;1.50;;
6614;SDS011;3343;42.896;23.912;2022-09-06T14:10:49;2.08;;;1.60;;
6614;SDS011;3343;42.896;23.912;2022-09-06T14:13:16;1.77;;;1.60;;
6614;SDS011;3343;42.896;23.912;2022-09-06T14:15:44;2.05;;;1.77;;
6614;SDS011;3343;42.896;23.912;2022-09-06T14:18:13;2.63;;;1.60;;
6614;SDS011;3343;42.896;23.912;2022-09-06T14:20:40;1.70;;;1.52;;
6614;SDS011;3343;42.896;23.912;2022-09-06T14:23:08;1.83;;;1.60;;
6614;SDS011;3343;42.896;23.912;2022-09-06T14:25:35;1.95;;;1.77;;
6614;SDS011;3343;42.896;23.912;2022-09-06T14:28:02;1.67;;;1.55;;
6614;SDS011;3343;42.896;23.912;2022-09-06T14:30:30;1.70;;;1.60;;
6614;SDS011;3343;42.896;23.912;2022-09-06T14:32:56;2.28;;;2.08;;
6614;SDS011;3343;42.896;23.912;2022-09-06T14:35:25;2.47;;;1.80;;
6614;SDS011;3343;42.896;23.912;2022-09-06T14:37:53;3.00;;;1.90;;
6614;SDS011;3343;42.896;23.912;2022-09-06T14:40:20;2.47;;;1.73;;
6614;SDS011;3343;42.896;23.912;2022-09-06T14:42:46;3.10;;;2.20;;
6614;SDS011;3343;42.896;23.912;2022-09-06T14:45:14;2.40;;;2.13;;
6614;SDS011;3343;42.896;23.912;2022-09-06T14:47:41;2.47;;;1.85;;
6614;SDS011;3343;42.896;23.912;2022-09-06T14:50:08;2.13;;;1.60;;
6614;SDS011;3343;42.896;23.912;2022-09-06T14:52:36;1.70;;;1.60;;
6614;SDS011;3343;42.896;23.912;2022-09-06T14:55:04;1.67;;;1.58;;
6614;SDS011;3343;42.896;23.912;2022-09-06T14:57:31;2.80;;;1.70;;
6614;SDS011;3343;42.896;23.912;2022-09-06T14:59:58;1.92;;;1.63;;
6614;SDS011;3343;42.896;23.912;2022-09-06T15:02:25;2.85;;;1.60;;
6614;SDS011;3343;42.896;23.912;2022-09-06T15:04:53;2.03;;;1.80;;
6614;SDS011;3343;42.896;23.912;2022-09-06T15:07:20;2.50;;;1.80;;
6614;SDS011;3343;42.896;23.912;2022-09-06T15:09:49;3.70;;;2.55;;
6614;SDS011;3343;42.896;23.912;2022-09-06T15:12:17;2.13;;;1.92;;
6614;SDS011;3343;42.896;23.912;2022-09-06T15:14:44;2.40;;;1.90;;
6614;SDS011;3343;42.896;23.912;2022-09-06T15:17:10;2.00;;;1.75;;
6614;SDS011;3343;42.896;23.912;2022-09-06T15:19:37;1.85;;;1.50;;
6614;SDS011;3343;42.896;23.912;2022-09-06T15:22:04;1.80;;;1.70;;
6614;SDS011;3343;42.896;23.912;2022-09-06T15:24:32;2.33;;;1.77;;
6614;SDS011;3343;42.896;23.912;2022-09-06T15:27:00;3.35;;;2.15;;
6614;SDS011;3343;42.896;23.912;2022-09-06T15:29:27;2.63;;;2.03;;
6614;SDS011;3343;42.896;23.912;2022-09-06T15:31:54;1.92;;;1.70;;
6614;SDS011;3343;42.896;23.912;2022-09-06T15:34:22;1.77;;;1.50;;